Du har inga inställningar för hoppväder.nu

Hoppväder.nu

Senast uppdaterat 06:04

UTC-tid

2019-11-21 kl. 05:04


Sol och måne

Solen går upp 8:13 och går ner 15:00 (beräknade cirkatider)
Nästa fullmåne blir om 21 dagar (2019-12-12)

METAR

ESSA (Arlanda, Stockholm)
(14 minuter sedan)
ESSA 210450Z 12012KT 8000 -DZ BKN006 06/05 Q1026 RWY 01L DAMP 51-100 PCT BA GOOD RWY 08 DAMP 51-100 PCT BA GOOD RWY 01R DAMP 51-100 PCT BA GOOD NOSIG=



ESSD (Borlänge)
ESSD NIL=



EFMA (Mariehamn)
(14 minuter sedan)
EFMA 210450Z AUTO 12009KT 090V150 9999 OVC008 07/05 Q1028=



ESOW (Västerås)
(14 minuter sedan)
ESOW 210450Z AUTO 11007KT 9999 OVC010/// 07/05 Q1025=






TAF

ESSA (Arlanda, Stockholm)
(334 minuter sedan)
ESSA 202330Z 2100/2124 10009KT 8000 BKN015 TEMPO 2100/2106 4000 BR BKN006 PROB40 2106/2124 BKN010=



ESSD (Borlänge)
ESSD



EFMA (Mariehamn)
(156 minuter sedan)
EFMA 210228Z 2103/2112 12009KT 9999 OVC006 TEMPO 2103/2106 4000 BR BKN004 TEMPO 2106/2112 SCT008 BKN015=



ESOW (Västerås)
ESOW





Kodnycklar till TAF och METAR






LHP

(Gryttjom är område F2c i Norra delen)







Spotting

Hur fungerar spotthjälpen och Vindkartan?

Markvind är ca 0 m/s.
Vind på 600 m ca 0 m/s.
Vind på 1500 m ca 0 m/s.
Vind på 3000 m ca 0 m/s.
SE-GEE flyger ca 45 m/s över marken på finalen.
Du driver ca 0 m bakåt i frifall. (0 m)
Lämplig spot är 6 sekunder eller 272 m innan gropen.
(-6s eller -272 m)
För små grupper eller ensamhoppare bör man vänta 3-5 sekunder mellan grupperna.
För större grupper bör man vänta 7-8 sekunder mellan grupperna.


Vindkartan

Senast uppdaterad 06:04




All data kommer från LFV.se